NEA1757 KBOS-KMLB
Flight info
| Callsign | NEA1757 |
|---|---|
| Flight time | N/A |
| Altitude | 38000 |
| Route | PUT318009 FARLE Q75 GSO Q83 ROYCO Q85 LPERD OMN BITHO7 KMLB |
| Aircraft | B38M/M-SDE1FGHILORVWXY/HB1 |
Departure
| Time | N/A |
|---|---|
| Airport | Boston Logan International Airport (KBOS) |
Arrival
| Time | 2026-04-30 19:59 |
|---|---|
| Airport | Melbourne Orlando International Airport (KMLB) |
| Time | Latitude | Longitude | Altitude | Speed | Heading |
|---|---|---|---|---|---|
| 2026-04-30 17:39 | 41.17917 | -73.74667 | 37808 ft | 408 kts | 236° |
| 2026-04-30 17:42 | 41.00505 | -74.04344 | 37818 ft | 408 kts | 233° |
| 2026-04-30 17:43 | 40.91678 | -74.19104 | 37822 ft | 409 kts | 233° |
| 2026-04-30 17:44 | 40.81096 | -74.36705 | 37854 ft | 407 kts | 233° |
| 2026-04-30 17:47 | 40.65172 | -74.62936 | 37812 ft | 407 kts | 233° |
| 2026-04-30 17:48 | 40.52241 | -74.82657 | 37825 ft | 406 kts | 230° |
| 2026-04-30 17:50 | 40.36886 | -75.04409 | 37793 ft | 406 kts | 230° |
| 2026-04-30 17:52 | 40.25306 | -75.20629 | 37829 ft | 406 kts | 229° |
| 2026-04-30 17:54 | 40.07918 | -75.44827 | 37863 ft | 406 kts | 229° |
| 2026-04-30 17:56 | 39.92387 | -75.66286 | 37838 ft | 405 kts | 231° |
| 2026-04-30 17:58 | 39.81748 | -75.83162 | 37826 ft | 404 kts | 233° |
| 2026-04-30 18:00 | 39.67519 | -76.05786 | 37831 ft | 405 kts | 233° |
| 2026-04-30 18:01 | 39.58580 | -76.19832 | 37829 ft | 402 kts | 233° |
| 2026-04-30 18:02 | 39.47769 | -76.36469 | 37846 ft | 402 kts | 233° |
| 2026-04-30 18:04 | 39.36007 | -76.52010 | 37871 ft | 403 kts | 229° |
| 2026-04-30 18:06 | 39.20869 | -76.71791 | 37863 ft | 403 kts | 229° |
| 2026-04-30 18:08 | 39.07059 | -76.89724 | 37872 ft | 403 kts | 229° |
| 2026-04-30 18:10 | 38.91266 | -77.10085 | 37890 ft | 402 kts | 229° |
| 2026-04-30 18:11 | 38.77408 | -77.27830 | 37868 ft | 401 kts | 229° |
| 2026-04-30 18:13 | 38.67234 | -77.40007 | 37896 ft | 402 kts | 227° |
| 2026-04-30 18:14 | 38.56891 | -77.51957 | 37902 ft | 400 kts | 227° |
| 2026-04-30 18:15 | 38.44475 | -77.66239 | 37894 ft | 401 kts | 227° |
| 2026-04-30 18:16 | 38.36194 | -77.75726 | 37899 ft | 400 kts | 227° |
| 2026-04-30 18:17 | 38.32057 | -77.80455 | 37899 ft | 400 kts | 227° |
| 2026-04-30 18:18 | 38.25844 | -77.87541 | 37841 ft | 399 kts | 227° |
| 2026-04-30 18:18 | 38.21707 | -77.92251 | 37898 ft | 400 kts | 227° |
| 2026-04-30 18:19 | 38.17590 | -77.96931 | 37910 ft | 399 kts | 227° |
| 2026-04-30 18:19 | 38.13443 | -78.01637 | 37906 ft | 400 kts | 227° |
| 2026-04-30 18:20 | 38.09286 | -78.06346 | 37894 ft | 400 kts | 227° |
| 2026-04-30 18:20 | 38.05130 | -78.11048 | 37500 ft | 400 kts | 228° |
| 2026-04-30 18:20 | 38.03058 | -78.13391 | 37759 ft | 398 kts | 228° |
| 2026-04-30 18:21 | 38.00938 | -78.15649 | 37837 ft | 401 kts | 223° |
| 2026-04-30 18:21 | 37.98706 | -78.17712 | 38015 ft | 395 kts | 224° |
| 2026-04-30 18:21 | 37.96496 | -78.19802 | 37928 ft | 397 kts | 224° |
| 2026-04-30 18:22 | 37.92097 | -78.23997 | 37909 ft | 396 kts | 224° |
| 2026-04-30 18:22 | 37.85498 | -78.30303 | 37890 ft | 396 kts | 224° |
| 2026-04-30 18:23 | 37.81104 | -78.34495 | 37896 ft | 396 kts | 224° |
| 2026-04-30 18:23 | 37.76702 | -78.38688 | 37894 ft | 396 kts | 224° |
| 2026-04-30 18:24 | 37.70097 | -78.44968 | 37898 ft | 396 kts | 224° |
| 2026-04-30 18:25 | 37.65691 | -78.49148 | 37899 ft | 396 kts | 224° |
| 2026-04-30 18:25 | 37.59074 | -78.55416 | 37893 ft | 398 kts | 224° |
| 2026-04-30 18:26 | 37.52430 | -78.61694 | 37889 ft | 398 kts | 224° |
| 2026-04-30 18:27 | 37.45817 | -78.67929 | 37902 ft | 398 kts | 224° |
| 2026-04-30 18:28 | 37.39169 | -78.74183 | 37880 ft | 398 kts | 224° |
| 2026-04-30 18:28 | 37.32499 | -78.80442 | 37904 ft | 398 kts | 224° |
| 2026-04-30 18:29 | 37.23610 | -78.88762 | 37902 ft | 399 kts | 224° |
| 2026-04-30 18:30 | 37.14700 | -78.97081 | 37908 ft | 400 kts | 224° |
| 2026-04-30 18:31 | 37.07994 | -79.03307 | 37907 ft | 400 kts | 224° |
| 2026-04-30 18:32 | 37.01284 | -79.09526 | 37908 ft | 400 kts | 224° |
| 2026-04-30 18:33 | 36.94568 | -79.15735 | 37895 ft | 402 kts | 224° |
| 2026-04-30 18:33 | 36.87815 | -79.21965 | 37901 ft | 402 kts | 224° |
| 2026-04-30 18:34 | 36.81061 | -79.28182 | 37918 ft | 402 kts | 224° |
| 2026-04-30 18:35 | 36.76557 | -79.32321 | 37905 ft | 402 kts | 224° |
| 2026-04-30 18:35 | 36.72043 | -79.36462 | 37901 ft | 404 kts | 223° |
| 2026-04-30 18:36 | 36.65240 | -79.42692 | 37923 ft | 405 kts | 223° |
| 2026-04-30 18:37 | 36.58471 | -79.48876 | 37906 ft | 404 kts | 224° |
| 2026-04-30 18:37 | 36.53926 | -79.53020 | 37908 ft | 405 kts | 224° |
| 2026-04-30 18:38 | 36.49374 | -79.57166 | 37900 ft | 407 kts | 224° |
| 2026-04-30 18:38 | 36.44797 | -79.61327 | 37901 ft | 407 kts | 224° |
| 2026-04-30 18:39 | 36.40224 | -79.65479 | 37902 ft | 407 kts | 224° |
| 2026-04-30 18:39 | 36.35645 | -79.69629 | 37903 ft | 408 kts | 224° |
| 2026-04-30 18:40 | 36.31070 | -79.73771 | 37902 ft | 407 kts | 224° |
| 2026-04-30 18:40 | 36.26472 | -79.77929 | 37906 ft | 411 kts | 223° |
| 2026-04-30 18:41 | 36.21849 | -79.82099 | 37903 ft | 410 kts | 223° |
| 2026-04-30 18:41 | 36.17247 | -79.86245 | 37895 ft | 409 kts | 224° |
| 2026-04-30 18:42 | 36.12644 | -79.90386 | 37905 ft | 409 kts | 224° |
| 2026-04-30 18:42 | 36.05734 | -79.96587 | 37878 ft | 411 kts | 222° |
| 2026-04-30 18:45 | 35.78502 | -80.10516 | 37943 ft | 422 kts | 215° |
| 2026-04-30 18:45 | 35.75737 | -80.11879 | 37879 ft | 421 kts | 215° |
| 2026-04-30 18:46 | 35.70306 | -80.14550 | 37913 ft | 424 kts | 215° |
| 2026-04-30 18:46 | 35.64830 | -80.17239 | 37914 ft | 424 kts | 216° |
| 2026-04-30 18:47 | 35.59350 | -80.19924 | 37940 ft | 424 kts | 216° |
| 2026-04-30 18:47 | 35.53866 | -80.22609 | 37938 ft | 424 kts | 216° |
| 2026-04-30 18:48 | 35.48385 | -80.25288 | 37953 ft | 424 kts | 216° |
| 2026-04-30 18:48 | 35.42897 | -80.27968 | 37946 ft | 424 kts | 216° |
| 2026-04-30 18:49 | 35.37168 | -80.30129 | 37952 ft | 449 kts | 201° |
| 2026-04-30 18:49 | 35.31006 | -80.31325 | 37959 ft | 450 kts | 204° |
| 2026-04-30 18:50 | 35.24818 | -80.32511 | 37927 ft | 450 kts | 203° |
| 2026-04-30 18:50 | 35.18623 | -80.33686 | 37944 ft | 451 kts | 203° |
| 2026-04-30 18:51 | 35.12435 | -80.34856 | 37900 ft | 449 kts | 203° |
| 2026-04-30 18:51 | 35.06241 | -80.36027 | 37928 ft | 452 kts | 204° |
| 2026-04-30 18:52 | 35.00028 | -80.37199 | 37913 ft | 451 kts | 204° |
| 2026-04-30 18:52 | 34.93822 | -80.38368 | 37920 ft | 452 kts | 204° |
| 2026-04-30 18:53 | 34.87611 | -80.39535 | 37917 ft | 452 kts | 204° |
| 2026-04-30 18:53 | 34.82443 | -80.40506 | 37910 ft | 453 kts | 204° |
| 2026-04-30 18:54 | 34.76189 | -80.41679 | 37922 ft | 454 kts | 204° |
| 2026-04-30 18:54 | 34.69946 | -80.42848 | 37942 ft | 455 kts | 204° |
| 2026-04-30 18:55 | 34.63689 | -80.44017 | 37936 ft | 455 kts | 204° |
| 2026-04-30 18:55 | 34.54281 | -80.45773 | 37938 ft | 459 kts | 204° |
| 2026-04-30 18:56 | 34.44837 | -80.47531 | 37922 ft | 457 kts | 204° |
| 2026-04-30 18:57 | 34.35397 | -80.49285 | 37862 ft | 458 kts | 203° |
| 2026-04-30 18:57 | 34.29066 | -80.50459 | 37928 ft | 463 kts | 206° |
| 2026-04-30 18:58 | 34.23031 | -80.52336 | 37933 ft | 435 kts | 216° |
| 2026-04-30 18:58 | 34.20058 | -80.53370 | 37914 ft | 459 kts | 202° |
| 2026-04-30 18:59 | 34.10785 | -80.55748 | 37859 ft | 454 kts | 207° |
| 2026-04-30 19:00 | 33.98497 | -80.59384 | 37896 ft | 455 kts | 207° |
| 2026-04-30 19:01 | 33.86233 | -80.63003 | 37907 ft | 456 kts | 207° |
| 2026-04-30 19:02 | 33.77012 | -80.65717 | 37918 ft | 455 kts | 207° |
| 2026-04-30 19:03 | 33.64737 | -80.69322 | 37942 ft | 454 kts | 207° |
| 2026-04-30 19:04 | 33.52432 | -80.72925 | 37915 ft | 456 kts | 207° |
| 2026-04-30 19:05 | 33.40113 | -80.76550 | 37909 ft | 455 kts | 207° |
| 2026-04-30 19:06 | 33.27773 | -80.80169 | 37903 ft | 460 kts | 206° |
| 2026-04-30 19:06 | 33.18459 | -80.82894 | 37891 ft | 459 kts | 206° |
| 2026-04-30 19:07 | 33.09150 | -80.85612 | 37880 ft | 459 kts | 206° |
| 2026-04-30 19:08 | 32.96775 | -80.89215 | 37901 ft | 459 kts | 206° |
| 2026-04-30 19:09 | 32.87463 | -80.91920 | 37889 ft | 459 kts | 206° |
| 2026-04-30 19:09 | 32.81266 | -80.93716 | 37851 ft | 459 kts | 206° |
| 2026-04-30 19:10 | 32.68769 | -80.97332 | 37873 ft | 462 kts | 206° |
| 2026-04-30 19:11 | 32.59387 | -81.00040 | 37874 ft | 463 kts | 206° |
| 2026-04-30 19:12 | 32.53094 | -81.01760 | 37854 ft | 473 kts | 197° |
| 2026-04-30 19:12 | 32.49746 | -81.01907 | 37886 ft | 485 kts | 191° |
| 2026-04-30 19:12 | 32.46371 | -81.01984 | 37867 ft | 485 kts | 192° |
| 2026-04-30 19:13 | 32.32869 | -81.02248 | 37847 ft | 485 kts | 191° |
| 2026-04-30 19:14 | 32.26134 | -81.02367 | 37872 ft | 482 kts | 191° |
| 2026-04-30 19:14 | 32.19438 | -81.02486 | 37858 ft | 480 kts | 191° |
| 2026-04-30 19:15 | 32.12763 | -81.02604 | 37877 ft | 480 kts | 191° |
| 2026-04-30 19:15 | 32.02742 | -81.02781 | 37747 ft | 480 kts | 191° |
| 2026-04-30 19:16 | 31.96141 | -81.02947 | 37858 ft | 471 kts | 191° |
| 2026-04-30 19:17 | 31.86331 | -81.03213 | 37843 ft | 470 kts | 191° |
| 2026-04-30 19:17 | 31.76519 | -81.03476 | 37842 ft | 470 kts | 191° |
| 2026-04-30 19:18 | 31.66735 | -81.03738 | 37853 ft | 468 kts | 191° |
| 2026-04-30 19:19 | 31.60262 | -81.04057 | 37839 ft | 456 kts | 201° |
| 2026-04-30 19:19 | 31.57326 | -81.05131 | 37853 ft | 432 kts | 215° |
| 2026-04-30 19:19 | 31.51905 | -81.08177 | 37849 ft | 432 kts | 217° |
| 2026-04-30 19:20 | 31.46559 | -81.11371 | 37840 ft | 431 kts | 217° |
| 2026-04-30 19:21 | 31.38621 | -81.16207 | 37857 ft | 431 kts | 217° |
| 2026-04-30 19:22 | 31.27925 | -81.22569 | 37860 ft | 431 kts | 217° |
| 2026-04-30 19:23 | 31.10280 | -81.28199 | 37841 ft | 469 kts | 190° |
| 2026-04-30 19:24 | 31.00459 | -81.28217 | 37863 ft | 471 kts | 189° |
| 2026-04-30 19:25 | 30.84050 | -81.28176 | 37882 ft | 472 kts | 189° |
| 2026-04-30 19:26 | 30.70914 | -81.28143 | 37879 ft | 472 kts | 189° |
| 2026-04-30 19:27 | 30.61040 | -81.28106 | 37884 ft | 476 kts | 186° |
| 2026-04-30 19:28 | 30.51055 | -81.26906 | 37874 ft | 481 kts | 182° |
| 2026-04-30 19:29 | 30.37742 | -81.25165 | 37893 ft | 482 kts | 182° |
| 2026-04-30 19:30 | 30.24503 | -81.23440 | 37875 ft | 482 kts | 182° |
| 2026-04-30 19:31 | 30.11179 | -81.21701 | 37921 ft | 482 kts | 182° |
| 2026-04-30 19:31 | 30.01170 | -81.20400 | 37922 ft | 483 kts | 181° |
| 2026-04-30 19:32 | 29.94493 | -81.19534 | 37922 ft | 482 kts | 181° |
| 2026-04-30 19:32 | 29.91153 | -81.19102 | 37035 ft | 487 kts | 181° |
| 2026-04-30 19:32 | 29.87770 | -81.18663 | 35797 ft | 490 kts | 181° |
| 2026-04-30 19:33 | 29.84404 | -81.18227 | 34933 ft | 484 kts | 181° |
| 2026-04-30 19:33 | 29.81072 | -81.17796 | 34078 ft | 478 kts | 181° |
| 2026-04-30 19:33 | 29.77792 | -81.17372 | 33274 ft | 470 kts | 181° |
| 2026-04-30 19:33 | 29.74561 | -81.16956 | 32630 ft | 468 kts | 181° |
| 2026-04-30 19:34 | 29.71308 | -81.16536 | 31693 ft | 471 kts | 181° |
| 2026-04-30 19:34 | 29.68056 | -81.16116 | 30733 ft | 467 kts | 181° |
| 2026-04-30 19:34 | 29.61661 | -81.15292 | 28760 ft | 458 kts | 181° |
| 2026-04-30 19:35 | 29.58510 | -81.14886 | 27773 ft | 454 kts | 181° |
| 2026-04-30 19:35 | 29.55383 | -81.14484 | 26832 ft | 449 kts | 181° |
| 2026-04-30 19:35 | 29.52301 | -81.14088 | 25956 ft | 444 kts | 181° |
| 2026-04-30 19:35 | 29.49244 | -81.13695 | 25091 ft | 440 kts | 181° |
| 2026-04-30 19:36 | 29.46217 | -81.13306 | 24276 ft | 435 kts | 181° |
| 2026-04-30 19:36 | 29.43266 | -81.12927 | 23508 ft | 430 kts | 181° |
| 2026-04-30 19:36 | 29.37384 | -81.12173 | 21689 ft | 421 kts | 181° |
| 2026-04-30 19:37 | 29.34492 | -81.11802 | 20855 ft | 415 kts | 181° |
| 2026-04-30 19:37 | 29.31640 | -81.11437 | 20063 ft | 410 kts | 181° |
| 2026-04-30 19:37 | 29.28822 | -81.11181 | 19307 ft | 402 kts | 183° |
| 2026-04-30 19:37 | 29.26049 | -81.10969 | 18846 ft | 399 kts | 183° |
| 2026-04-30 19:38 | 29.23293 | -81.10748 | 18403 ft | 396 kts | 182° |
| 2026-04-30 19:38 | 29.20555 | -81.10526 | 17987 ft | 388 kts | 182° |
| 2026-04-30 19:38 | 29.17897 | -81.10309 | 17554 ft | 377 kts | 182° |
| 2026-04-30 19:38 | 29.15316 | -81.10099 | 17146 ft | 367 kts | 182° |
| 2026-04-30 19:39 | 29.12796 | -81.09893 | 16738 ft | 361 kts | 183° |
| 2026-04-30 19:39 | 29.10291 | -81.09689 | 16335 ft | 360 kts | 182° |
| 2026-04-30 19:39 | 29.07796 | -81.09486 | 15934 ft | 359 kts | 182° |
| 2026-04-30 19:39 | 29.05303 | -81.09283 | 15543 ft | 359 kts | 182° |
| 2026-04-30 19:40 | 29.02814 | -81.09080 | 15149 ft | 358 kts | 182° |
| 2026-04-30 19:40 | 29.00338 | -81.08883 | 14715 ft | 357 kts | 182° |
| 2026-04-30 19:40 | 28.97860 | -81.08686 | 14320 ft | 356 kts | 182° |
| 2026-04-30 19:40 | 28.96221 | -81.08557 | 14066 ft | 355 kts | 182° |
| 2026-04-30 19:41 | 28.92931 | -81.08296 | 13449 ft | 354 kts | 181° |
| 2026-04-30 19:41 | 28.91303 | -81.08167 | 13153 ft | 354 kts | 181° |
| 2026-04-30 19:41 | 28.88864 | -81.07973 | 12699 ft | 346 kts | 181° |
| 2026-04-30 19:41 | 28.86497 | -81.07786 | 12267 ft | 336 kts | 182° |
| 2026-04-30 19:42 | 28.84199 | -81.07606 | 11870 ft | 326 kts | 182° |
| 2026-04-30 19:42 | 28.81968 | -81.07429 | 11488 ft | 315 kts | 182° |
| 2026-04-30 19:42 | 28.79814 | -81.07259 | 11117 ft | 307 kts | 182° |
| 2026-04-30 19:42 | 28.77687 | -81.07091 | 10681 ft | 306 kts | 182° |
| 2026-04-30 19:43 | 28.75591 | -81.07036 | 10275 ft | 295 kts | 194° |
| 2026-04-30 19:43 | 28.73559 | -81.07319 | 9783 ft | 300 kts | 185° |
| 2026-04-30 19:43 | 28.71544 | -81.06662 | 9506 ft | 310 kts | 154° |
| 2026-04-30 19:44 | 28.68595 | -81.03008 | 8798 ft | 310 kts | 135° |
| 2026-04-30 19:44 | 28.67164 | -81.01237 | 8520 ft | 301 kts | 137° |
| 2026-04-30 19:44 | 28.65676 | -80.99621 | 8449 ft | 290 kts | 142° |
| 2026-04-30 19:44 | 28.64194 | -80.98099 | 8282 ft | 284 kts | 141° |
| 2026-04-30 19:45 | 28.62740 | -80.96595 | 8073 ft | 281 kts | 141° |
| 2026-04-30 19:45 | 28.61297 | -80.95096 | 8038 ft | 281 kts | 141° |
| 2026-04-30 19:45 | 28.59849 | -80.93591 | 8015 ft | 282 kts | 141° |
| 2026-04-30 19:45 | 28.58405 | -80.92085 | 7970 ft | 282 kts | 141° |
| 2026-04-30 19:46 | 28.56958 | -80.90580 | 7967 ft | 281 kts | 140° |
| 2026-04-30 19:46 | 28.55510 | -80.89072 | 7978 ft | 281 kts | 141° |
| 2026-04-30 19:46 | 28.54071 | -80.87575 | 7965 ft | 281 kts | 140° |
| 2026-04-30 19:46 | 28.52626 | -80.86071 | 7968 ft | 281 kts | 141° |
| 2026-04-30 19:47 | 28.51184 | -80.84570 | 7970 ft | 281 kts | 141° |
| 2026-04-30 19:47 | 28.50228 | -80.83578 | 7968 ft | 281 kts | 141° |
| 2026-04-30 19:47 | 28.48296 | -80.81568 | 7974 ft | 282 kts | 141° |
| 2026-04-30 19:47 | 28.46849 | -80.80064 | 7980 ft | 281 kts | 141° |
| 2026-04-30 19:48 | 28.45405 | -80.78565 | 7966 ft | 281 kts | 141° |
| 2026-04-30 19:48 | 28.43964 | -80.77068 | 7982 ft | 281 kts | 141° |
| 2026-04-30 19:48 | 28.42638 | -80.75432 | 7944 ft | 283 kts | 129° |
| 2026-04-30 19:48 | 28.41452 | -80.73647 | 7981 ft | 284 kts | 130° |
| 2026-04-30 19:49 | 28.40243 | -80.71873 | 7975 ft | 284 kts | 130° |
| 2026-04-30 19:49 | 28.37796 | -80.68352 | 7982 ft | 284 kts | 131° |
| 2026-04-30 19:49 | 28.36577 | -80.66619 | 7975 ft | 277 kts | 131° |
| 2026-04-30 19:50 | 28.35383 | -80.64925 | 7882 ft | 274 kts | 131° |
| 2026-04-30 19:50 | 28.34191 | -80.63238 | 7456 ft | 273 kts | 131° |
| 2026-04-30 19:50 | 28.33000 | -80.61555 | 7074 ft | 275 kts | 131° |
| 2026-04-30 19:50 | 28.31802 | -80.59862 | 6622 ft | 274 kts | 131° |
| 2026-04-30 19:51 | 28.30617 | -80.58190 | 6244 ft | 269 kts | 131° |
| 2026-04-30 19:51 | 28.29457 | -80.56552 | 5911 ft | 262 kts | 131° |
| 2026-04-30 19:51 | 28.28333 | -80.54967 | 5644 ft | 254 kts | 131° |
| 2026-04-30 19:51 | 28.27242 | -80.53429 | 5383 ft | 246 kts | 132° |
| 2026-04-30 19:52 | 28.26170 | -80.51918 | 5147 ft | 244 kts | 132° |
| 2026-04-30 19:52 | 28.25111 | -80.50424 | 4900 ft | 242 kts | 132° |
| 2026-04-30 19:52 | 28.24058 | -80.48942 | 4759 ft | 242 kts | 132° |
| 2026-04-30 19:52 | 28.23008 | -80.47462 | 4686 ft | 239 kts | 132° |
| 2026-04-30 19:53 | 28.21962 | -80.45993 | 4608 ft | 239 kts | 132° |
| 2026-04-30 19:53 | 28.20912 | -80.44532 | 4448 ft | 238 kts | 136° |
| 2026-04-30 19:53 | 28.19571 | -80.43541 | 4121 ft | 227 kts | 167° |
| 2026-04-30 19:53 | 28.18037 | -80.43343 | 3796 ft | 222 kts | 184° |
| 2026-04-30 19:54 | 28.16495 | -80.43343 | 3446 ft | 221 kts | 184° |
| 2026-04-30 19:54 | 28.14961 | -80.43368 | 3175 ft | 220 kts | 185° |
| 2026-04-30 19:54 | 28.13440 | -80.43464 | 2995 ft | 216 kts | 196° |
| 2026-04-30 19:54 | 28.12147 | -80.44226 | 2852 ft | 207 kts | 225° |
| 2026-04-30 19:55 | 28.11359 | -80.45502 | 2712 ft | 191 kts | 249° |
| 2026-04-30 19:55 | 28.11058 | -80.46893 | 2575 ft | 178 kts | 262° |
| 2026-04-30 19:55 | 28.10969 | -80.48287 | 2420 ft | 176 kts | 267° |
| 2026-04-30 19:55 | 28.10911 | -80.49623 | 2273 ft | 169 kts | 266° |
| 2026-04-30 19:56 | 28.10854 | -80.50932 | 2082 ft | 166 kts | 266° |
| 2026-04-30 19:56 | 28.10794 | -80.52239 | 1848 ft | 166 kts | 266° |
| 2026-04-30 19:56 | 28.10733 | -80.53504 | 1650 ft | 159 kts | 266° |
| 2026-04-30 19:56 | 28.10673 | -80.54739 | 1454 ft | 150 kts | 266° |
| 2026-04-30 19:57 | 28.10619 | -80.55847 | 1280 ft | 137 kts | 266° |
| 2026-04-30 19:57 | 28.10567 | -80.56917 | 1099 ft | 138 kts | 266° |
| 2026-04-30 19:57 | 28.10512 | -80.58010 | 917 ft | 139 kts | 268° |
| 2026-04-30 19:57 | 28.10469 | -80.59081 | 761 ft | 135 kts | 265° |
| 2026-04-30 19:58 | 28.10418 | -80.60112 | 533 ft | 132 kts | 269° |
| 2026-04-30 19:58 | 28.10367 | -80.61168 | 335 ft | 137 kts | 267° |
| 2026-04-30 19:58 | 28.10320 | -80.62283 | 179 ft | 138 kts | 268° |
| 2026-04-30 19:58 | 28.10263 | -80.63309 | 40 ft | 122 kts | 266° |
| 2026-04-30 19:59 | 28.10229 | -80.64081 | 35 ft | 73 kts | 265° |
| 2026-04-30 19:59 | 28.10209 | -80.64483 | 36 ft | 33 kts | 268° |
| 2026-04-30 19:59 | 28.10107 | -80.64756 | 33 ft | 10 kts | 184° |
| 2026-04-30 20:00 | 28.10094 | -80.64757 | 38 ft | 0 kts | 185° |
| 2026-04-30 20:00 | 28.10092 | -80.64757 | 37 ft | 1 kts | 186° |
| 2026-04-30 20:00 | 28.10090 | -80.64757 | 37 ft | 0 kts | 185° |
| 2026-04-30 20:00 | 28.10089 | -80.64757 | 37 ft | 1 kts | 185° |
| 2026-04-30 20:01 | 28.10060 | -80.64621 | 38 ft | 25 kts | 86° |
| 2026-04-30 20:01 | 28.10071 | -80.64403 | 36 ft | 30 kts | 86° |
| 2026-04-30 20:01 | 28.10082 | -80.64197 | 38 ft | 23 kts | 87° |
| 2026-04-30 20:02 | 28.10098 | -80.63785 | 35 ft | 26 kts | 88° |
| 2026-04-30 20:02 | 28.10106 | -80.63573 | 33 ft | 25 kts | 88° |
| 2026-04-30 20:03 | 28.09943 | -80.63298 | 34 ft | 19 kts | 131° |
| 2026-04-30 20:03 | 28.09875 | -80.63261 | 34 ft | 11 kts | 150° |
| 2026-04-30 20:03 | 28.09844 | -80.63231 | 34 ft | 1 kts | 135° |
| 2026-04-30 20:03 | 28.09832 | -80.63218 | 34 ft | 0 kts | 135° |